Time;durP1;ratioP1;P1;durP2;ratioP2;P2;SDS_P1;SDS_P2;PMS_P1;PMS_P2;Temp;Humidity;BMP_temperature;BMP_pressure;BME280_temperature;BME280_humidity;BME280_pressure;Samples;Min_cycle;Max_cycle;Signal;HPM_P1;HPM_P2
2023/01/29 00:02:08;;;;;;;;;;;5.20;99.90;;;;;;5054954;28;19921;-76
2023/01/29 00:04:37;;;;;;;;;;;;;;;;;;5071933;28;19920;-76
2023/01/29 00:07:03;;;;;;;;;;;5.00;99.90;;;;;;5071724;28;19924;-76
2023/01/29 00:09:30;;;;;;;;;;;4.90;99.90;;;;;;5070697;28;19966;-76
2023/01/29 00:11:59;;;;;;;;;;;;;;;;;;5054318;28;19920;-76
2023/01/29 00:14:28;;;;;;;;;;;;;;;;;;5073226;28;20008;-76
2023/01/29 00:16:53;;;;;;;;;;;5.20;99.90;;;;;;5056871;28;19928;-76
2023/01/29 00:19:19;;;;;;;;;;;;;;;;;;5057355;28;20416;-76
2023/01/29 00:21:51;;;;;;;;;;;;;;;;;;5057295;28;19928;-76
2023/01/29 00:24:17;;;;;;;;;;;5.20;99.90;;;;;;5074007;28;19972;-76
2023/01/29 00:26:46;;;;;;;;;;;;;;;;;;5073711;28;19921;-76
2023/01/29 00:29:18;;;;;;;;;;;;;;;;;;5073894;28;19926;-76
2023/01/29 00:31:47;;;;;;;;;;;;;;;;;;5057367;28;19924;-76
2023/01/29 00:34:23;;;;;;;;;;;5.20;99.90;;;;;;5057037;28;19980;-76
2023/01/29 00:36:48;;;;;;;;;;;5.10;99.90;;;;;;5073601;28;20416;-75
2023/01/29 00:39:24;;;;;;;;;;;5.30;99.90;;;;;;5074955;28;19921;-76
2023/01/29 00:45:03;;;;;;;;;;;5.20;99.90;;;;;;5074993;28;20011;-76
2023/01/29 00:47:32;;;;;;;;;;;;;;;;;;5056615;28;19927;-76
2023/01/29 00:50:08;;;;;;;;;;;5.20;99.90;;;;;;5056993;28;19920;-76
2023/01/29 00:52:43;;;;;;;;;;;;;;;;;;5073502;28;20017;-76
2023/01/29 00:55:09;;;;;;;;;;;;;;;;;;5073286;28;19928;-77
2023/01/29 00:57:35;;;;;;;;;;;;;;;;;;5056549;28;20374;-76
2023/01/29 01:00:04;;;;;;;;;;;;;;;;;;5056661;28;19930;-76
2023/01/29 01:05:16;;;;;;;;;;;;;;;;;;5072713;28;20019;-76
2023/01/29 01:07:56;;;;;;;;;;;5.30;99.90;;;;;;5073269;28;19921;-75
2023/01/29 01:10:21;;;;;;;;;;;5.20;99.90;;;;;;5074474;28;19928;-76
2023/01/29 01:12:57;;;;;;;;;;;;;;;;;;5073425;28;19939;-76
2023/01/29 01:15:39;;;;;;;;;;;5.30;99.90;;;;;;5072208;28;19920;-76
2023/01/29 01:18:05;;;;;;;;;;;;;;;;;;5056872;28;20011;-76
2023/01/29 01:20:31;;;;;;;;;;;;;;;;;;5074139;28;19978;-76
2023/01/29 01:23:15;;;;;;;;;;;;;;;;;;5073742;28;19921;-77
2023/01/29 01:25:41;;;;;;;;;;;;;;;;;;5074066;28;20011;-76
2023/01/29 01:28:08;;;;;;;;;;;5.50;99.90;;;;;;5056289;28;19921;-76
2023/01/29 01:30:39;;;;;;;;;;;5.30;99.90;;;;;;5054644;28;19924;-76
2023/01/29 01:33:04;;;;;;;;;;;4.90;99.90;;;;;;5056444;28;19920;-76
2023/01/29 01:35:50;;;;;;;;;;;5.40;99.90;;;;;;5073421;28;20291;-76
2023/01/29 01:38:22;;;;;;;;;;;;;;;;;;5056845;28;19970;-76
2023/01/29 01:40:54;;;;;;;;;;;;;;;;;;5073297;28;19928;-76
2023/01/29 01:43:20;;;;;;;;;;;;;;;;;;5073527;28;19981;-76
2023/01/29 01:45:49;;;;;;;;;;;5.20;99.90;;;;;;5074032;28;19921;-75
2023/01/29 01:48:24;;;;;;;;;;;5.30;99.90;;;;;;5073061;28;19920;-76
2023/01/29 01:50:55;;;;;;;;;;;5.30;99.90;;;;;;5073207;28;19921;-76
2023/01/29 01:53:33;;;;;;;;;;;5.50;99.90;;;;;;5056703;28;20270;-76
2023/01/29 01:56:02;;;;;;;;;;;;;;;;;;5054943;28;19939;-76
2023/01/29 01:58:36;;;;;;;;;;;;;;;;;;5056752;28;19985;-76
2023/01/29 02:01:09;;;;;;;;;;;5.20;99.90;;;;;;5072207;28;20015;-76
2023/01/29 02:09:40;;;;;;;;;;;5.40;99.90;;;;;;5073461;28;19997;-76
2023/01/29 02:12:09;;;;;;;;;;;;;;;;;;5055510;28;19932;-75
2023/01/29 02:14:39;;;;;;;;;;;;;;;;;;5072351;28;20015;-76
2023/01/29 02:17:08;;;;;;;;;;;5.50;99.90;;;;;;5071460;28;20047;-75
2023/01/29 02:19:37;;;;;;;;;;;;;;;;;;5056212;28;19928;-76
2023/01/29 02:22:30;;;;;;;;;;;5.50;99.90;;;;;;5073088;28;19935;-75
2023/01/29 02:25:03;;;;;;;;;;;;;;;;;;5071870;28;19920;-75
2023/01/29 02:27:49;;;;;;;;;;;5.30;99.90;;;;;;5071821;28;19920;-75
2023/01/29 02:30:24;;;;;;;;;;;;;;;;;;5055487;28;19920;-76
2023/01/29 02:33:11;;;;;;;;;;;5.70;99.90;;;;;;5071299;28;20386;-75
2023/01/29 02:35:37;;;;;;;;;;;;;;;;;;5070975;28;20376;-76
2023/01/29 02:38:10;;;;;;;;;;;;;;;;;;5072002;28;19963;-75
2023/01/29 02:40:52;;;;;;;;;;;5.40;99.90;;;;;;5058173;28;19931;-75
2023/01/29 02:43:24;;;;;;;;;;;;;;;;;;5057493;28;19921;-75
2023/01/29 02:46:16;;;;;;;;;;;5.30;99.90;;;;;;5057828;28;19924;-75
2023/01/29 02:49:04;;;;;;;;;;;5.30;99.90;;;;;;5054752;28;20271;-75
2023/01/29 02:51:56;;;;;;;;;;;5.30;99.90;;;;;;5054639;28;19921;-75
2023/01/29 02:54:41;;;;;;;;;;;5.20;99.90;;;;;;5071990;28;19925;-75
2023/01/29 02:57:24;;;;;;;;;;;;;;;;;;5055430;28;20318;-75
2023/01/29 03:00:09;;;;;;;;;;;;;;;;;;5069992;28;19967;-75
2023/01/29 03:02:35;;;;;;;;;;;;;;;;;;5055119;28;19925;-76
2023/01/29 03:05:29;;;;;;;;;;;;;;;;;;5056861;28;20301;-74
2023/01/29 03:08:00;;;;;;;;;;;;;;;;;;5072569;28;20336;-76
2023/01/29 03:10:26;;;;;;;;;;;;;;;;;;5071055;28;19968;-76
2023/01/29 03:13:02;;;;;;;;;;;5.40;99.90;;;;;;5054880;28;20435;-76
2023/01/29 03:15:37;;;;;;;;;;;;;;;;;;5070740;28;20386;-75
2023/01/29 03:18:15;;;;;;;;;;;;;;;;;;5056121;28;19927;-76
2023/01/29 03:20:47;;;;;;;;;;;;;;;;;;5071091;28;19924;-76
2023/01/29 03:23:25;;;;;;;;;;;5.30;99.90;;;;;;5071217;28;19974;-75
2023/01/29 03:34:39;;;;;;;;;;;5.10;99.90;;;;;;5053413;28;20359;-76
2023/01/29 03:37:17;;;;;;;;;;;5.30;99.90;;;;;;5071518;28;19925;-76
2023/01/29 03:39:43;;;;;;;;;;;;;;;;;;5070780;28;19940;-76
2023/01/29 03:42:12;;;;;;;;;;;;;;;;;;5054310;28;19920;-76
2023/01/29 03:44:43;;;;;;;;;;;;;;;;;;5053694;28;19921;-75
2023/01/29 03:47:16;;;;;;;;;;;;;;;;;;5054010;28;19966;-75
2023/01/29 03:49:54;;;;;;;;;;;;;;;;;;5058950;28;19928;-75
2023/01/29 03:52:33;;;;;;;;;;;5.30;99.90;;;;;;5059787;28;20282;-75
2023/01/29 03:55:05;;;;;;;;;;;;;;;;;;5074353;28;19927;-75
2023/01/29 03:57:31;;;;;;;;;;;;;;;;;;5058742;28;20325;-76
2023/01/29 04:00:00;;;;;;;;;;;5.30;99.90;;;;;;5058434;28;19920;-75
2023/01/29 04:02:29;;;;;;;;;;;5.50;99.90;;;;;;5058423;28;19993;-75
2023/01/29 04:04:58;;;;;;;;;;;;;;;;;;5058382;28;19929;-75
2023/01/29 04:07:32;;;;;;;;;;;;;;;;;;5074194;28;20405;-75
2023/01/29 04:10:11;;;;;;;;;;;5.30;99.90;;;;;;5075513;28;20062;-75
2023/01/29 04:12:40;;;;;;;;;;;;;;;;;;5074453;28;20019;-75
2023/01/29 04:15:09;;;;;;;;;;;;;;;;;;5073955;28;20404;-75
2023/01/29 04:17:38;;;;;;;;;;;;;;;;;;5074574;28;19924;-76
2023/01/29 04:20:04;;;;;;;;;;;;;;;;;;5074218;28;19920;-75
2023/01/29 04:22:42;;;;;;;;;;;;;;;;;;5073561;28;19928;-76
2023/01/29 04:25:25;;;;;;;;;;;;;;;;;;5073732;28;19921;-76
2023/01/29 04:27:51;;;;;;;;;;;;;;;;;;5057592;28;19924;-76
2023/01/29 04:30:23;;;;;;;;;;;;;;;;;;5073000;28;19928;-76
2023/01/29 04:32:49;;;;;;;;;;;;;;;;;;5075116;28;20321;-76
2023/01/29 04:35:25;;;;;;;;;;;;;;;;;;;;;
2023/01/29 04:38:06;;;;;;;;;;;5.50;99.90;;;;;;5074270;28;19925;-76
2023/01/29 04:40:32;;;;;;;;;;;;;;;;;;5057178;28;19926;-76
2023/01/29 04:43:00;;;;;;;;;;;;;;;;;;5059281;28;19920;-76
2023/01/29 04:45:39;;;;;;;;;;;;;;;;;;5077074;28;19939;-76
2023/01/29 04:48:06;;;;;;;;;;;;;;;;;;5057815;28;19942;-76
2023/01/29 04:50:46;;;;;;;;;;;5.50;99.90;;;;;;5058500;28;20298;-76
2023/01/29 04:53:12;;;;;;;;;;;;;;;;;;5056710;28;19977;-75
2023/01/29 04:55:43;;;;;;;;;;;;;;;;;;5072937;28;20003;-75
2023/01/29 04:58:19;;;;;;;;;;;5.40;99.90;;;;;;5073522;28;20394;-76
2023/01/29 05:00:56;;;;;;;;;;;5.70;99.90;;;;;;5055865;28;19967;-76
2023/01/29 05:03:36;;;;;;;;;;;5.60;99.90;;;;;;5056286;28;19974;-76
2023/01/29 05:06:05;;;;;;;;;;;;;;;;;;5074398;28;19963;-76
2023/01/29 05:08:37;;;;;;;;;;;;;;;;;;5073335;28;20398;-76
2023/01/29 05:11:09;;;;;;;;;;;5.50;99.90;;;;;;5072880;28;19921;-75
2023/01/29 05:13:56;;;;;;;;;;;5.50;99.90;;;;;;5057131;28;20330;-76
2023/01/29 05:16:40;;;;;;;;;;;5.20;99.90;;;;;;5074129;28;19925;-76
2023/01/29 05:19:10;;;;;;;;;;;;;;;;;;5074299;28;19920;-76
2023/01/29 05:21:49;;;;;;;;;;;5.60;99.90;;;;;;5070205;28;19924;-76
2023/01/29 05:24:18;;;;;;;;;;;;;;;;;;5059341;28;20374;-75
2023/01/29 05:29:29;;;;;;;;;;;5.40;99.90;;;;;;5073233;28;19963;-75
2023/01/29 05:31:55;;;;;;;;;;;;;;;;;;5072532;28;19959;-76
2023/01/29 05:34:29;;;;;;;;;;;5.70;99.90;;;;;;5074102;28;19943;-76
2023/01/29 05:36:55;;;;;;;;;;;;;;;;;;5073994;28;19925;-76
2023/01/29 05:39:21;;;;;;;;;;;;;;;;;;5055116;28;20417;-75
2023/01/29 05:41:49;;;;;;;;;;;;;;;;;;5055435;28;19920;-76
2023/01/29 05:44:19;;;;;;;;;;;5.60;99.90;;;;;;5055676;28;19970;-76
2023/01/29 05:46:48;;;;;;;;;;;;;;;;;;5055457;28;19932;-75
2023/01/29 05:49:34;;;;;;;;;;;5.50;99.90;;;;;;5055114;28;20007;-75
2023/01/29 05:52:05;;;;;;;;;;;;;;;;;;5056906;28;19966;-75
2023/01/29 05:54:34;;;;;;;;;;;5.60;99.90;;;;;;5072405;28;20339;-75
2023/01/29 05:57:02;;;;;;;;;;;5.60;99.90;;;;;;5073121;28;20352;-75
2023/01/29 05:59:31;;;;;;;;;;;;;;;;;;5054279;28;19920;-75
2023/01/29 06:02:03;;;;;;;;;;;5.60;99.90;;;;;;5072302;28;19927;-75
2023/01/29 06:04:36;;;;;;;;;;;5.40;99.90;;;;;;5056155;28;19931;-75
2023/01/29 06:07:12;;;;;;;;;;;;;;;;;;5057031;28;20275;-76
2023/01/29 06:09:43;;;;;;;;;;;5.60;99.90;;;;;;5071889;28;19920;-76
2023/01/29 06:12:11;;;;;;;;;;;5.30;99.90;;;;;;5070683;28;19924;-75
2023/01/29 06:14:37;;;;;;;;;;;5.40;99.90;;;;;;5056704;28;19920;-75
2023/01/29 06:17:03;;;;;;;;;;;;;;;;;;5055788;28;19931;-76
2023/01/29 06:19:39;;;;;;;;;;;;;;;;;;;;;
2023/01/29 06:22:08;;;;;;;;;;;5.30;99.90;;;;;;5072417;28;19927;-76
2023/01/29 06:24:42;;;;;;;;;;;5.50;99.90;;;;;;5073174;28;19921;-76
2023/01/29 06:27:08;;;;;;;;;;;;;;;;;;5072574;28;19927;-77
2023/01/29 06:29:41;;;;;;;;;;;5.60;99.90;;;;;;5072157;28;19967;-76
2023/01/29 06:32:16;;;;;;;;;;;;;;;;;;5073187;28;19927;-76
2023/01/29 06:34:42;;;;;;;;;;;;;;;;;;5071112;28;19966;-75
2023/01/29 06:37:08;;;;;;;;;;;;;;;;;;5054495;28;19925;-76
2023/01/29 06:39:34;;;;;;;;;;;;;;;;;;5073607;28;19921;-76
2023/01/29 06:42:03;;;;;;;;;;;;;;;;;;5058687;28;19927;-75
2023/01/29 06:44:31;;;;;;;;;;;;;;;;;;5074422;28;19921;-76
2023/01/29 06:47:02;;;;;;;;;;;5.20;99.90;;;;;;5057433;28;19926;-76
2023/01/29 06:49:28;;;;;;;;;;;5.10;99.90;;;;;;5071651;28;20393;-76
2023/01/29 06:51:54;;;;;;;;;;;;;;;;;;5055163;28;19925;-76
2023/01/29 06:54:28;;;;;;;;;;;;;;;;;;5055262;28;19920;-76
2023/01/29 06:56:56;;;;;;;;;;;5.20;99.90;;;;;;5070982;28;20019;-76
2023/01/29 06:59:25;;;;;;;;;;;;;;;;;;5072640;28;19978;-75
2023/01/29 07:01:56;;;;;;;;;;;;;;;;;;5070865;28;19927;-76
2023/01/29 07:04:34;;;;;;;;;;;;;;;;;;5056393;28;20271;-76
2023/01/29 07:07:00;;;;;;;;;;;;;;;;;;5055787;28;19921;-76
2023/01/29 07:09:35;;;;;;;;;;;5.40;99.90;;;;;;5056583;28;19921;-75
2023/01/29 07:12:04;;;;;;;;;;;;;;;;;;5069173;28;20421;-76
2023/01/29 07:14:30;;;;;;;;;;;5.20;99.90;;;;;;5071520;28;19920;-75
2023/01/29 07:17:06;;;;;;;;;;;5.10;99.90;;;;;;5068839;28;20003;-75
2023/01/29 07:19:41;;;;;;;;;;;5.10;99.90;;;;;;5071165;28;20444;-75
2023/01/29 07:22:20;;;;;;;;;;;;;;;;;;;;;
2023/01/29 07:24:48;;;;;;;;;;;5.10;99.90;;;;;;5075237;28;19928;-76
2023/01/29 07:27:22;;;;;;;;;;;5.10;99.90;;;;;;5059081;28;19920;-76
2023/01/29 07:30:00;;;;;;;;;;;;;;;;;;5074131;28;19920;-76
2023/01/29 07:32:35;;;;;;;;;;;5.20;99.90;;;;;;5057791;28;20359;-76
2023/01/29 07:35:01;;;;;;;;;;;;;;;;;;5074950;28;19928;-75
2023/01/29 07:37:34;;;;;;;;;;;5.10;99.90;;;;;;5058233;28;20129;-75
2023/01/29 07:40:10;;;;;;;;;;;5.30;99.90;;;;;;5074314;28;20321;-76
2023/01/29 07:42:43;;;;;;;;;;;5.10;99.90;;;;;;5058763;28;20010;-75
2023/01/29 07:45:11;;;;;;;;;;;;;;;;;;5064327;28;20282;-76
2023/01/29 07:47:37;;;;;;;;;;;;;;;;;;5074912;28;19967;-76
2023/01/29 07:50:12;;;;;;;;;;;5.20;99.90;;;;;;5058409;28;20378;-75
2023/01/29 07:52:56;;;;;;;;;;;5.40;99.90;;;;;;5074601;28;19920;-76
2023/01/29 07:55:33;;;;;;;;;;;;;;;;;;5073830;28;20389;-75
2023/01/29 07:58:17;;;;;;;;;;;;;;;;;;5074458;28;20455;-76
2023/01/29 08:00:55;;;;;;;;;;;5.20;99.90;;;;;;5060353;28;19920;-76
2023/01/29 08:03:26;;;;;;;;;;;5.10;99.90;;;;;;5060147;28;19920;-76
2023/01/29 08:05:52;;;;;;;;;;;;;;;;;;5073974;28;19924;-75
2023/01/29 08:08:24;;;;;;;;;;;4.90;99.90;;;;;;5066216;28;20287;-75
2023/01/29 08:11:02;;;;;;;;;;;5.10;99.90;;;;;;5049433;28;19921;-75
2023/01/29 08:13:36;;;;;;;;;;;5.10;99.90;;;;;;5047716;28;19964;-75
2023/01/29 08:16:10;;;;;;;;;;;5.10;99.90;;;;;;5047160;28;19924;-75
2023/01/29 08:18:49;;;;;;;;;;;;;;;;;;5046314;28;19935;-76
2023/01/29 08:21:25;;;;;;;;;;;5.30;99.90;;;;;;5046972;28;19927;-75
2023/01/29 08:24:01;;;;;;;;;;;5.20;99.90;;;;;;5064810;28;20313;-75
2023/01/29 08:26:33;;;;;;;;;;;;;;;;;;5062493;28;19920;-75
2023/01/29 08:28:59;;;;;;;;;;;;;;;;;;5049772;28;19920;-76
2023/01/29 08:31:32;;;;;;;;;;;5.40;99.90;;;;;;5044259;28;19920;-76
2023/01/29 08:33:58;;;;;;;;;;;;;;;;;;5055766;28;20381;-76
2023/01/29 08:36:32;;;;;;;;;;;5.30;99.90;;;;;;5052720;28;19925;-76
2023/01/29 08:39:09;;;;;;;;;;;5.30;99.90;;;;;;5054235;28;19925;-75
2023/01/29 08:41:35;;;;;;;;;;;;;;;;;;5038974;28;19999;-76
2023/01/29 08:44:07;;;;;;;;;;;;;;;;;;5037349;28;20285;-76
2023/01/29 08:46:36;;;;;;;;;;;;;;;;;;5066000;28;19921;-75
2023/01/29 08:49:11;;;;;;;;;;;5.30;99.90;;;;;;5060602;28;19924;-76
2023/01/29 08:51:43;;;;;;;;;;;;;;;;;;5041537;28;19927;-76
2023/01/29 08:54:11;;;;;;;;;;;5.50;99.90;;;;;;5060489;28;19924;-75
2023/01/29 08:56:51;;;;;;;;;;;5.20;99.90;;;;;;5038660;28;19998;-76
2023/01/29 08:59:21;;;;;;;;;;;;;;;;;;5063975;28;19928;-76
2023/01/29 09:01:47;;;;;;;;;;;;;;;;;;5062575;28;20476;-76
2023/01/29 09:04:22;;;;;;;;;;;;;;;;;;5062938;28;19956;-76
2023/01/29 09:06:48;;;;;;;;;;;;;;;;;;5071625;28;19924;-77
2023/01/29 09:12:24;;;;;;;;;;;;;;;;;;5066766;28;20525;-76
2023/01/29 09:14:50;;;;;;;;;;;;;;;;;;5061938;28;20381;-76
2023/01/29 09:17:28;;;;;;;;;;;;;;;;;;5068727;28;19975;-76
2023/01/29 09:20:00;;;;;;;;;;;;;;;;;;5054258;28;20003;-76
2023/01/29 09:22:50;;;;;;;;;;;5.60;99.90;;;;;;5071077;28;20273;-76
2023/01/29 09:25:16;;;;;;;;;;;;;;;;;;5048152;28;20002;-76
2023/01/29 09:27:50;;;;;;;;;;;;;;;;;;5050609;28;20378;-75
2023/01/29 09:30:16;;;;;;;;;;;;;;;;;;5057912;28;20378;-76
2023/01/29 09:32:45;;;;;;;;;;;;;;;;;;5048246;28;20394;-76
2023/01/29 09:35:13;;;;;;;;;;;;;;;;;;5068572;28;19930;-75
2023/01/29 09:37:45;;;;;;;;;;;5.40;99.90;;;;;;5042130;28;19924;-76
2023/01/29 09:40:16;;;;;;;;;;;;;;;;;;5049619;28;19953;-77
2023/01/29 09:42:48;;;;;;;;;;;;;;;;;;5048147;28;20022;-76
2023/01/29 09:45:14;;;;;;;;;;;;;;;;;;5045092;28;20344;-75
2023/01/29 09:47:49;;;;;;;;;;;5.70;99.90;;;;;;5055809;28;20310;-76
2023/01/29 09:50:18;;;;;;;;;;;5.40;99.90;;;;;;5040661;28;19936;-76
2023/01/29 09:53:09;;;;;;;;;;;5.50;99.90;;;;;;5054705;28;19921;-75
2023/01/29 09:55:38;;;;;;;;;;;;;;;;;;5050882;28;19921;-76
2023/01/29 09:58:18;;;;;;;;;;;5.60;99.90;;;;;;5053340;28;20390;-76
2023/01/29 10:01:19;;;;;;;;;;;5.50;99.90;;;;;;5050532;28;19921;-77
2023/01/29 10:04:00;;;;;;;;;;;;;;;;;;5039875;28;19928;-78
2023/01/29 10:06:55;;;;;;;;;;;;;;;;;;;;;
2023/01/29 10:09:42;;;;;;;;;;;;;;;;;;5049275;28;19928;-77
2023/01/29 10:12:08;;;;;;;;;;;;;;;;;;5041490;28;19963;-77
2023/01/29 10:14:40;;;;;;;;;;;;;;;;;;5056967;28;19979;-75
2023/01/29 10:17:08;;;;;;;;;;;;;;;;;;5051567;28;20180;-75
2023/01/29 10:19:44;;;;;;;;;;;;;;;;;;5050985;28;20003;-76
2023/01/29 10:22:16;;;;;;;;;;;;;;;;;;5038412;28;19921;-76
2023/01/29 10:24:50;;;;;;;;;;;;;;;;;;5064612;28;20022;-76
2023/01/29 10:27:18;;;;;;;;;;;;;;;;;;5059319;28;20357;-76
2023/01/29 10:29:58;;;;;;;;;;;5.60;99.90;;;;;;5053461;28;19929;-77
2023/01/29 10:32:30;;;;;;;;;;;;;;;;;;5034532;28;19924;-77
2023/01/29 10:35:02;;;;;;;;;;;;;;;;;;5046626;28;19924;-77
2023/01/29 10:37:31;;;;;;;;;;;;;;;;;;5045892;28;19929;-77
2023/01/29 10:40:19;;;;;;;;;;;;;;;;;;5052500;28;19924;-77
2023/01/29 10:42:51;;;;;;;;;;;;;;;;;;5045988;28;19924;-77
2023/01/29 10:45:20;;;;;;;;;;;5.70;99.90;;;;;;5044985;28;19924;-75
2023/01/29 10:47:46;;;;;;;;;;;;;;;;;;5043598;28;19928;-76
2023/01/29 10:50:24;;;;;;;;;;;;;;;;;;5047936;28;19928;-77
2023/01/29 10:53:11;;;;;;;;;;;5.80;99.90;;;;;;5059729;28;19931;-76
2023/01/29 10:55:52;;;;;;;;;;;5.70;99.90;;;;;;5045400;28;20008;-76
2023/01/29 10:58:26;;;;;;;;;;;;;;;;;;5052804;28;19947;-76
2023/01/29 11:00:58;;;;;;;;;;;;;;;;;;5043984;28;19924;-77
2023/01/29 11:03:27;;;;;;;;;;;;;;;;;;5046922;28;19952;-77
2023/01/29 11:05:59;;;;;;;;;;;;;;;;;;5034687;28;19964;-76
2023/01/29 11:08:27;;;;;;;;;;;;;;;;;;5037048;28;20433;-76
2023/01/29 11:10:56;;;;;;;;;;;;;;;;;;5043704;28;20020;-77
2023/01/29 11:13:22;;;;;;;;;;;;;;;;;;5056398;28;19935;-76
2023/01/29 11:15:54;;;;;;;;;;;;;;;;;;5042508;28;19921;-76
2023/01/29 11:18:23;;;;;;;;;;;;;;;;;;5049220;28;19980;-76
2023/01/29 11:20:49;;;;;;;;;;;;;;;;;;5045997;28;19921;-76
2023/01/29 11:23:23;;;;;;;;;;;;;;;;;;5064105;28;19964;-76
2023/01/29 11:26:05;;;;;;;;;;;;;;;;;;5037505;28;19920;-76
2023/01/29 11:28:32;;;;;;;;;;;;;;;;;;5057574;28;19947;-75
2023/01/29 11:31:07;;;;;;;;;;;;;;;;;;5053414;28;19921;-75
2023/01/29 11:33:39;;;;;;;;;;;;;;;;;;5038658;28;20358;-75
2023/01/29 11:36:10;;;;;;;;;;;;;;;;;;5034512;28;20170;-75
2023/01/29 11:38:49;;;;;;;;;;;;;;;;;;5066148;28;19981;-76
2023/01/29 11:41:31;;;;;;;;;;;;;;;;;;5037589;28;20313;-77
2023/01/29 11:44:18;;;;;;;;;;;6.40;99.90;;;;;;5052566;28;19924;-75
2023/01/29 11:46:47;;;;;;;;;;;;;;;;;;5052751;28;19924;-75
2023/01/29 11:49:22;;;;;;;;;;;6.50;99.90;;;;;;5035013;28;20309;-75
2023/01/29 11:51:54;;;;;;;;;;;6.30;99.90;;;;;;5057147;28;20263;-76
2023/01/29 11:54:31;;;;;;;;;;;;;;;;;;5041877;28;19932;-76
2023/01/29 11:57:00;;;;;;;;;;;;;;;;;;5054430;28;19928;-76
2023/01/29 11:59:26;;;;;;;;;;;;;;;;;;5052730;28;19925;-77
2023/01/29 12:01:55;;;;;;;;;;;;;;;;;;5033419;28;19921;-76
2023/01/29 12:04:24;;;;;;;;;;;;;;;;;;5042602;28;20390;-76
2023/01/29 12:06:52;;;;;;;;;;;;;;;;;;5049775;28;19956;-77
2023/01/29 12:09:18;;;;;;;;;;;;;;;;;;5050523;28;20054;-77
2023/01/29 12:11:47;;;;;;;;;;;;;;;;;;5039057;28;19932;-79
2023/01/29 12:14:18;;;;;;;;;;;;;;;;;;5035135;28;19925;-77
2023/01/29 12:16:47;;;;;;;;;;;;;;;;;;5047869;28;19928;-77
2023/01/29 12:19:29;;;;;;;;;;;;;;;;;;5060250;28;19920;-77
2023/01/29 12:21:55;;;;;;;;;;;;;;;;;;5062692;28;19920;-77
2023/01/29 12:24:24;;;;;;;;;;;;;;;;;;5046089;28;19929;-77
2023/01/29 12:26:53;;;;;;;;;;;;;;;;;;5063476;28;20049;-78
2023/01/29 12:29:22;;;;;;;;;;;;;;;;;;5066404;28;19921;-77
2023/01/29 12:31:52;;;;;;;;;;;;;;;;;;5034965;28;19932;-76
2023/01/29 12:34:20;;;;;;;;;;;;;;;;;;5061598;28;19928;-77
2023/01/29 12:36:52;;;;;;;;;;;;;;;;;;5036457;28;20326;-76
2023/01/29 12:39:23;;;;;;;;;;;;;;;;;;5058278;28;19926;-77
2023/01/29 12:41:58;;;;;;;;;;;;;;;;;;5048977;28;19927;-76
2023/01/29 12:44:33;;;;;;;;;;;;;;;;;;5063297;28;20309;-76
2023/01/29 12:47:08;;;;;;;;;;;;;;;;;;5053075;28;19970;-76
2023/01/29 12:49:40;;;;;;;;;;;;;;;;;;5040308;28;20026;-75
2023/01/29 12:52:08;;;;;;;;;;;;;;;;;;5063438;28;19928;-75
2023/01/29 12:54:38;;;;;;;;;;;;;;;;;;5038910;28;19927;-76
2023/01/29 12:57:07;;;;;;;;;;;;;;;;;;5038828;28;19936;-75
2023/01/29 12:59:39;;;;;;;;;;;;;;;;;;5052263;28;20045;-76
2023/01/29 13:02:14;;;;;;;;;;;;;;;;;;5064107;28;19924;-76
2023/01/29 13:04:48;;;;;;;;;;;;;;;;;;5034873;28;20008;-76
2023/01/29 13:07:23;;;;;;;;;;;;;;;;;;5052863;28;19929;-76
2023/01/29 13:09:51;;;;;;;;;;;;;;;;;;5057182;28;19924;-75
2023/01/29 13:12:23;;;;;;;;;;;;;;;;;;5060868;28;20014;-75
2023/01/29 13:14:49;;;;;;;;;;;;;;;;;;5052539;28;20493;-75
2023/01/29 13:17:23;;;;;;;;;;;;;;;;;;5057774;28;20064;-75
2023/01/29 13:19:49;;;;;;;;;;;;;;;;;;5040701;28;20393;-75
2023/01/29 13:22:18;;;;;;;;;;;;;;;;;;5035522;28;19924;-75
2023/01/29 13:24:53;;;;;;;;;;;;;;;;;;5056305;28;19930;-75
2023/01/29 13:27:28;;;;;;;;;;;;;;;;;;5048346;28;19931;-76
2023/01/29 13:29:54;;;;;;;;;;;;;;;;;;5048717;28;20011;-75
2023/01/29 13:32:23;;;;;;;;;;;;;;;;;;5044634;28;20382;-76
2023/01/29 13:34:52;;;;;;;;;;;;;;;;;;5063599;28;20309;-76
2023/01/29 13:37:18;;;;;;;;;;;;;;;;;;5054602;28;19933;-76
2023/01/29 13:39:59;;;;;;;;;;;;;;;;;;5056832;28;19920;-76
2023/01/29 13:42:25;;;;;;;;;;;;;;;;;;5060611;28;19989;-76
2023/01/29 13:44:56;;;;;;;;;;;;;;;;;;5065498;28;20011;-76
2023/01/29 13:47:30;;;;;;;;;;;;;;;;;;5055329;28;20062;-76
2023/01/29 13:49:59;;;;;;;;;;;;;;;;;;5055559;28;19925;-76
2023/01/29 13:52:28;;;;;;;;;;;;;;;;;;5041192;28;20116;-76
2023/01/29 13:54:59;;;;;;;;;;;;;;;;;;5064681;28;20007;-76
2023/01/29 13:57:28;;;;;;;;;;;;;;;;;;5061437;28;20007;-76
2023/01/29 13:59:55;;;;;;;;;;;;;;;;;;5048081;28;20057;-76
2023/01/29 14:02:23;;;;;;;;;;;;;;;;;;5059756;28;19974;-77
2023/01/29 14:04:52;;;;;;;;;;;;;;;;;;5049782;28;19928;-76
2023/01/29 14:07:21;;;;;;;;;;;;;;;;;;5043627;28;20011;-77
2023/01/29 14:10:00;;;;;;;;;;;;;;;;;;;;;
2023/01/29 14:15:15;;;;;;;;;;;;;;;;;;5058174;28;19960;-77
2023/01/29 14:20:33;;;;;;;;;;;;;;;;;;5059259;28;19924;-77
2023/01/29 14:23:04;;;;;;;;;;;;;;;;;;5043126;28;19928;-77
2023/01/29 14:25:35;;;;;;;;;;;;;;;;;;5034837;28;20330;-78
2023/01/29 14:28:02;;;;;;;;;;;;;;;;;;5033852;28;19925;-76
2023/01/29 14:30:39;;;;;;;;;;;;;;;;;;5062253;28;20007;-75
2023/01/29 14:33:26;;;;;;;;;;;;;;;;;;5046467;28;19924;-77
2023/01/29 14:35:53;;;;;;;;;;;;;;;;;;5066671;28;20391;-78
2023/01/29 14:38:27;;;;;;;;;;;;;;;;;;5052027;28;19925;-77
2023/01/29 14:40:56;;;;;;;;;;;;;;;;;;5053679;28;19963;-76
2023/01/29 14:43:29;;;;;;;;;;;;;;;;;;5044079;28;20024;-76
2023/01/29 14:45:58;;;;;;;;;;;;;;;;;;5050054;28;19981;-76
2023/01/29 14:48:43;;;;;;;;;;;;;;;;;;5056866;28;19932;-76
2023/01/29 14:51:18;;;;;;;;;;;;;;;;;;5056999;28;19920;-76
2023/01/29 14:53:50;;;;;;;;;;;;;;;;;;5051999;28;19924;-77
2023/01/29 14:56:28;;;;;;;;;;;;;;;;;;5053662;28;19929;-76
2023/01/29 14:59:05;;;;;;;;;;;;;;;;;;5052369;28;19924;-77
2023/01/29 15:01:32;;;;;;;;;;;;;;;;;;5054013;28;19924;-74
2023/01/29 15:04:05;;;;;;;;;;;;;;;;;;5042949;28;19966;-76
2023/01/29 15:06:45;;;;;;;;;;;;;;;;;;5048808;28;19921;-76
2023/01/29 15:09:21;;;;;;;;;;;;;;;;;;5054884;28;19982;-76
2023/01/29 15:11:50;;;;;;;;;;;;;;;;;;5065145;28;19920;-75
2023/01/29 15:14:25;;;;;;;;;;;;;;;;;;5059540;28;19925;-77
2023/01/29 15:16:51;;;;;;;;;;;;;;;;;;5039350;28;19925;-77
2023/01/29 15:19:17;;;;;;;;;;;;;;;;;;5056702;28;19932;-76
2023/01/29 15:21:43;;;;;;;;;;;;;;;;;;5042863;28;19931;-76
2023/01/29 15:24:22;;;;;;;;;;;;;;;;;;;;;
2023/01/29 15:26:59;;;;;;;;;;;;;;;;;;;;;
2023/01/29 15:29:28;;;;;;;;;;;;;;;;;;5058935;28;20579;-76
2023/01/29 15:32:00;;;;;;;;;;;;;;;;;;5037953;28;20962;-76
2023/01/29 15:34:35;;;;;;;;;;;;;;;;;;5031787;28;20398;-76
2023/01/29 15:37:17;;;;;;;;;;;;;;;;;;;;;
2023/01/29 15:39:46;;;;;;;;;;;;;;;;;;5059728;28;20431;-76
2023/01/29 15:42:20;;;;;;;;;;;;;;;;;;5037490;28;19947;-76
2023/01/29 15:44:59;;;;;;;;;;;;;;;;;;5045933;28;20060;-76
2023/01/29 15:50:23;;;;;;;;;;;;;;;;;;5068141;28;19921;-76
2023/01/29 15:52:52;;;;;;;;;;;;;;;;;;5055287;28;19921;-75
2023/01/29 15:55:34;;;;;;;;;;;;;;;;;;5059572;28;19976;-76
2023/01/29 15:58:03;;;;;;;;;;;;;;;;;;5058259;28;19931;-76
2023/01/29 16:00:42;;;;;;;;;;;;;;;;;;;;;
2023/01/29 16:03:11;;;;;;;;;;;;;;;;;;5056488;28;19924;-77
2023/01/29 16:05:38;;;;;;;;;;;;;;;;;;5043646;28;19967;-76
2023/01/29 16:08:11;;;;;;;;;;;;;;;;;;5047672;28;19920;-75
2023/01/29 16:10:37;;;;;;;;;;;;;;;;;;5063296;28;19921;-75
2023/01/29 16:13:09;;;;;;;;;;;;;;;;;;5042080;28;19925;-77
2023/01/29 16:15:53;;;;;;;;;;;;;;;;;;5063065;28;19921;-77
2023/01/29 16:18:22;;;;;;;;;;;;;;;;;;5075671;28;19954;-77
2023/01/29 16:21:05;;;;;;;;;;;;;;;;;;5074556;28;19928;-77
2023/01/29 16:23:33;;;;;;;;;;;;;;;;;;5075922;28;20355;-77
2023/01/29 16:28:51;;;;;;;;;;;;;;;;;;5042421;28;19968;-77
2023/01/29 16:31:20;;;;;;;;;;;;;;;;;;5027015;28;19933;-77
2023/01/29 16:33:52;;;;;;;;;;;;;;;;;;5048611;28;19924;-78
2023/01/29 16:36:19;;;;;;;;;;;;;;;;;;5016684;28;19932;-77
2023/01/29 16:38:45;;;;;;;;;;;;;;;;;;5044309;23;19975;-69
2023/01/29 16:41:11;;;;;;;;;;;;;;;;;;5028818;28;19952;-69
2023/01/29 16:43:36;;;;;;;;;;;;;;;;;;5029929;28;20362;-70
2023/01/29 16:46:03;;;;;;;;;;;;;;;;;;5028594;28;19994;-70
2023/01/29 16:48:29;;;;;;;;;;;;;;;;;;5029257;28;19948;-70
2023/01/29 16:50:55;;;;;;;;;;;;;;;;;;5030501;28;19921;-70
2023/01/29 16:53:22;;;;;;;;;;;;;;;;;;5028875;28;19925;-70
2023/01/29 16:55:48;;;;;;;;;;;;;;;;;;5025380;28;19944;-70
2023/01/29 16:58:14;;;;;;;;;;;;;;;;;;5028748;28;19929;-70
2023/01/29 17:00:40;;;;;;;;;;;;;;;;;;5028636;28;19921;-70
2023/01/29 17:03:06;;;;;;;;;;;;;;;;;;5029014;28;19929;-70
2023/01/29 17:05:32;;;;;;;;;;;;;;;;;;5027527;28;19929;-70
2023/01/29 17:07:58;;;;;;;;;;;;;;;;;;5030126;28;19932;-69
2023/01/29 17:10:24;;;;;;;;;;;;;;;;;;5028416;28;19932;-69
2023/01/29 17:12:50;;;;;;;;;;;;;;;;;;5030552;28;20035;-70
2023/01/29 17:15:16;;;;;;;;;;;;;;;;;;5027527;28;19972;-69
2023/01/29 17:17:41;;;;;;;;;;;;;;;;;;5028545;28;19933;-69
2023/01/29 17:20:07;;;;;;;;;;;;;;;;;;5027254;28;19929;-70
2023/01/29 17:22:33;;;;;;;;;;;;;;;;;;5027009;28;19932;-70